createdAt,value
2019-02-21T00:00:06.173Z,101812.95
2019-02-21T00:02:34.882Z,101810.22
2019-02-21T00:05:04.099Z,101810.45
2019-02-21T00:07:32.675Z,101804.91
2019-02-21T00:10:01.273Z,101810.02
2019-02-21T00:12:29.953Z,101802.09
2019-02-21T00:14:58.895Z,101796.72
2019-02-21T00:17:27.517Z,101805.33
2019-02-21T00:19:56.283Z,101800.00
2019-02-21T00:22:24.872Z,101802.76
2019-02-21T00:24:54.432Z,101801.95
2019-02-21T00:27:23.089Z,101803.84
2019-02-21T00:29:51.672Z,101802.82
2019-02-21T00:32:20.265Z,101801.01
2019-02-21T00:34:49.185Z,101802.47
2019-02-21T00:37:17.862Z,101802.82
2019-02-21T00:39:46.408Z,101801.81
2019-02-21T00:42:15.670Z,101805.21
2019-02-21T00:44:44.180Z,101801.78
2019-02-21T00:47:13.138Z,101802.70
2019-02-21T00:49:41.767Z,101803.75
2019-02-21T00:52:10.436Z,101802.02
2019-02-21T00:54:39.128Z,101797.69
2019-02-21T00:57:07.808Z,101796.80
2019-02-21T00:59:36.406Z,101792.95
2019-02-21T01:02:04.989Z,101791.91
2019-02-21T01:04:33.596Z,101794.66
2019-02-21T01:07:02.235Z,101800.42
2019-02-21T01:09:30.848Z,101801.46
2019-02-21T01:11:59.508Z,101804.59
2019-02-21T01:14:28.110Z,101805.11
2019-02-21T01:16:56.735Z,101805.09
2019-02-21T01:19:25.262Z,101798.45
2019-02-21T01:21:53.871Z,101800.33
2019-02-21T01:24:22.451Z,101799.94
2019-02-21T01:26:51.355Z,101792.89
2019-02-21T01:29:19.900Z,101796.59
2019-02-21T01:31:48.614Z,101792.44
2019-02-21T01:34:17.436Z,101784.68
2019-02-21T01:36:45.981Z,101791.27
2019-02-21T01:39:14.538Z,101782.80
2019-02-21T01:41:43.165Z,101780.85
2019-02-21T01:44:12.025Z,101778.16
2019-02-21T01:46:40.695Z,101773.73
2019-02-21T01:49:09.279Z,101764.82
2019-02-21T01:51:37.886Z,101765.23
2019-02-21T01:54:06.821Z,101762.43
2019-02-21T01:56:35.378Z,101760.28
2019-02-21T01:59:03.923Z,101771.26
2019-02-21T02:01:32.536Z,101773.37
2019-02-21T02:04:01.158Z,101765.88
2019-02-21T02:06:29.710Z,101773.66
2019-02-21T02:08:58.257Z,101766.02
2019-02-21T02:11:26.828Z,101769.06
2019-02-21T02:13:55.423Z,101776.31
2019-02-21T02:16:24.066Z,101771.98
2019-02-21T02:18:52.685Z,101768.69
2019-02-21T02:21:21.300Z,101772.78
2019-02-21T02:23:49.880Z,101780.56
2019-02-21T02:26:18.767Z,101778.30
2019-02-21T02:28:47.339Z,101776.31
2019-02-21T02:31:22.719Z,101769.61
2019-02-21T02:33:46.136Z,101765.81
2019-02-21T02:36:14.737Z,101763.80
2019-02-21T02:38:43.371Z,101767.71
2019-02-21T02:41:12.683Z,101767.55
2019-02-21T02:43:41.248Z,101761.83
2019-02-21T02:46:09.841Z,101768.64
2019-02-21T02:48:38.488Z,101766.95
2019-02-21T02:51:07.429Z,101763.39
2019-02-21T02:53:36.072Z,101760.66
2019-02-21T02:56:04.655Z,101759.30
2019-02-21T02:58:33.614Z,101751.32
2019-02-21T03:01:02.579Z,101752.83
2019-02-21T03:03:31.297Z,101754.98
2019-02-21T03:05:59.904Z,101758.77
2019-02-21T03:08:28.574Z,101754.76
2019-02-21T03:10:57.159Z,101763.39
2019-02-21T03:13:25.835Z,101763.46
2019-02-21T03:15:54.723Z,101768.60
2019-02-21T03:18:23.305Z,101768.72
2019-02-21T03:20:51.917Z,101770.31
2019-02-21T03:23:20.575Z,101769.17
2019-02-21T03:25:49.185Z,101768.24
2019-02-21T03:28:17.914Z,101769.97
2019-02-21T03:30:46.468Z,101774.04
2019-02-21T03:33:15.113Z,101773.73
2019-02-21T03:35:43.716Z,101778.80
2019-02-21T03:38:12.514Z,101781.19
2019-02-21T03:40:41.037Z,101775.34
2019-02-21T03:43:09.649Z,101780.06
2019-02-21T03:45:38.257Z,101784.45
2019-02-21T03:48:06.847Z,101786.95
2019-02-21T03:50:35.418Z,101782.42
2019-02-21T03:53:04.399Z,101783.30
2019-02-21T03:55:32.995Z,101788.22
2019-02-21T03:58:01.609Z,101781.06
2019-02-21T04:00:30.269Z,101781.33
2019-02-21T04:02:58.872Z,101781.36
2019-02-21T04:05:27.576Z,101779.98
2019-02-21T04:07:56.234Z,101776.32
2019-02-21T04:10:24.803Z,101776.36
2019-02-21T04:12:53.371Z,101776.33
2019-02-21T04:15:22.037Z,101775.95
2019-02-21T04:17:50.637Z,101780.13
2019-02-21T04:20:19.267Z,101783.09
2019-02-21T04:22:47.802Z,101783.58
2019-02-21T04:25:16.332Z,101780.13
2019-02-21T04:27:44.969Z,101779.24
2019-02-21T04:30:13.579Z,101778.23
2019-02-21T04:32:42.346Z,101774.55
2019-02-21T04:35:10.968Z,101782.20
2019-02-21T04:37:39.608Z,101780.84
2019-02-21T04:40:08.290Z,101782.83
2019-02-21T04:42:37.283Z,101783.58
2019-02-21T04:45:06.749Z,101785.45
2019-02-21T04:47:35.353Z,101786.81
2019-02-21T04:50:04.721Z,101783.28
2019-02-21T04:52:33.253Z,101780.94
2019-02-21T04:55:01.857Z,101771.59
2019-02-21T04:57:30.433Z,101780.31
2019-02-21T04:59:58.982Z,101775.39
2019-02-21T05:02:29.546Z,101779.83
2019-02-21T05:04:57.940Z,101771.66
2019-02-21T05:07:26.476Z,101763.46
2019-02-21T05:09:58.308Z,101765.63
2019-02-21T05:12:25.467Z,101760.80
2019-02-21T05:14:55.076Z,101767.61
2019-02-21T05:17:23.731Z,101760.80
2019-02-21T05:19:52.408Z,101766.48
2019-02-21T05:22:21.003Z,101760.78
2019-02-21T05:24:49.577Z,101763.22
2019-02-21T05:27:19.829Z,101758.18
2019-02-21T05:29:48.491Z,101766.87
2019-02-21T05:32:40.478Z,101768.77
2019-02-21T05:35:08.205Z,101764.08
2019-02-21T05:37:54.554Z,101755.80
2019-02-21T05:40:41.930Z,101755.06
2019-02-21T05:43:11.442Z,101755.19
2019-02-21T05:45:57.578Z,101762.48
2019-02-21T05:48:27.805Z,101747.17
2019-02-21T05:51:14.560Z,101750.47
2019-02-21T05:53:44.765Z,101759.13
2019-02-21T05:56:14.970Z,101755.36
2019-02-21T05:58:48.016Z,101750.64
2019-02-21T06:01:18.310Z,101749.75
2019-02-21T06:03:51.113Z,101750.59
2019-02-21T06:06:24.141Z,101751.18
2019-02-21T06:08:57.221Z,101758.42
2019-02-21T06:11:27.463Z,101752.27
2019-02-21T06:14:13.804Z,101744.53
2019-02-21T06:17:00.758Z,101747.77
2019-02-21T06:19:39.937Z,101745.70
2019-02-21T06:22:26.311Z,101741.33
2019-02-21T06:24:58.964Z,101750.41
2019-02-21T06:27:29.320Z,101745.78
2019-02-21T06:30:02.503Z,101748.92
2019-02-21T06:32:31.077Z,101749.44
2019-02-21T06:35:02.435Z,101753.67
2019-02-21T06:37:30.005Z,101748.42
2019-02-21T06:39:58.599Z,101747.33
2019-02-21T06:42:27.147Z,101751.33
2019-02-21T06:44:55.754Z,101748.77
2019-02-21T06:47:24.560Z,101751.95
2019-02-21T06:49:53.105Z,101749.45
2019-02-21T06:52:21.715Z,101750.05
2019-02-21T06:54:50.268Z,101749.55
2019-02-21T06:57:19.049Z,101752.66
2019-02-21T06:59:47.648Z,101754.31
2019-02-21T07:02:16.302Z,101758.80
2019-02-21T07:04:44.932Z,101754.35
2019-02-21T07:07:13.522Z,101749.56
2019-02-21T07:09:42.079Z,101746.59
2019-02-21T07:12:10.793Z,101748.59
2019-02-21T07:14:39.458Z,101742.04
2019-02-21T07:17:08.647Z,101753.06
2019-02-21T07:19:37.458Z,101759.59
2019-02-21T07:22:06.382Z,101760.52
2019-02-21T07:24:38.334Z,101771.11
2019-02-21T07:27:06.088Z,101767.39
2019-02-21T07:29:34.668Z,101769.00
2019-02-21T07:32:03.230Z,101766.94
2019-02-21T07:34:31.842Z,101777.33
2019-02-21T07:37:00.458Z,101770.84
2019-02-21T07:39:36.138Z,101782.20
2019-02-21T07:41:59.379Z,101787.20
2019-02-21T07:44:28.071Z,101788.19
2019-02-21T07:46:56.645Z,101786.02
2019-02-21T07:49:25.830Z,101796.78
2019-02-21T07:51:54.471Z,101790.64
2019-02-21T07:54:23.144Z,101792.20
2019-02-21T07:56:51.672Z,101800.64
2019-02-21T07:59:20.338Z,101801.09
2019-02-21T08:01:48.908Z,101801.31
2019-02-21T08:04:18.548Z,101804.52
2019-02-21T08:06:47.232Z,101806.79
2019-02-21T08:09:15.874Z,101805.52
2019-02-21T08:11:44.535Z,101810.13
2019-02-21T08:14:15.947Z,101816.67
2019-02-21T08:16:43.605Z,101816.89
2019-02-21T08:19:12.264Z,101814.38
2019-02-21T08:21:43.518Z,101821.45
2019-02-21T08:24:12.017Z,101820.47
2019-02-21T08:26:40.569Z,101823.20
2019-02-21T08:29:09.317Z,101819.77
2019-02-21T08:31:37.938Z,101819.55
2019-02-21T08:34:08.284Z,101820.28
2019-02-21T08:36:36.862Z,101823.41
2019-02-21T08:39:07.476Z,101817.09
2019-02-21T08:41:36.113Z,101810.28
2019-02-21T08:44:06.666Z,101805.88
2019-02-21T08:46:35.672Z,101809.59
2019-02-21T08:49:06.381Z,101810.45
2019-02-21T08:51:35.134Z,101810.88
2019-02-21T08:54:06.187Z,101807.88
2019-02-21T08:56:34.987Z,101811.42
2019-02-21T08:59:03.517Z,101818.04
2019-02-21T09:01:32.147Z,101820.09
2019-02-21T09:04:09.923Z,101822.06
2019-02-21T09:06:30.952Z,101821.13
2019-02-21T09:09:01.773Z,101815.97
2019-02-21T09:11:30.445Z,101820.09
2019-02-21T09:13:59.575Z,101813.55
2019-02-21T09:16:28.221Z,101815.00
2019-02-21T09:18:56.886Z,101810.11
2019-02-21T09:21:25.491Z,101807.85
2019-02-21T09:23:56.595Z,101813.37
2019-02-21T09:26:24.379Z,101811.81
2019-02-21T09:28:53.337Z,101811.33
2019-02-21T09:31:22.013Z,101808.14
2019-02-21T09:33:53.743Z,101809.67
2019-02-21T09:36:22.807Z,101817.95
2019-02-21T09:38:51.389Z,101809.22
2019-02-21T09:41:19.997Z,101807.28
2019-02-21T09:43:51.315Z,101813.86
2019-02-21T09:46:19.950Z,101811.97
2019-02-21T09:48:48.643Z,101810.57
2019-02-21T09:51:19.283Z,101803.42
2019-02-21T09:53:47.881Z,101810.33
2019-02-21T09:56:16.539Z,101810.30
2019-02-21T09:58:45.942Z,101808.10
2019-02-21T10:01:14.898Z,101800.91
2019-02-21T10:03:44.304Z,101791.10
2019-02-21T10:06:13.272Z,101794.70
2019-02-21T10:08:41.975Z,101794.61
2019-02-21T10:11:11.529Z,101798.06
2019-02-21T10:13:40.291Z,101792.05
2019-02-21T10:16:08.977Z,101791.91
2019-02-21T10:18:37.562Z,101793.62
2019-02-21T10:21:06.727Z,101787.77
2019-02-21T10:23:35.367Z,101787.40
2019-02-21T10:26:04.095Z,101777.12
2019-02-21T10:28:32.670Z,101774.20
2019-02-21T10:31:01.359Z,101762.71
2019-02-21T10:33:29.975Z,101767.42
2019-02-21T10:36:00.482Z,101767.45
2019-02-21T10:38:28.985Z,101779.15
2019-02-21T10:40:58.053Z,101766.23
2019-02-21T10:43:26.658Z,101767.31
2019-02-21T10:45:55.336Z,101763.31
2019-02-21T10:48:23.944Z,101763.79
2019-02-21T10:50:52.671Z,101755.75
2019-02-21T10:53:21.332Z,101756.35
2019-02-21T10:55:49.974Z,101756.43
2019-02-21T10:58:19.275Z,101749.06
2019-02-21T11:00:48.015Z,101740.58
2019-02-21T11:03:16.542Z,101734.52
2019-02-21T11:05:45.174Z,101732.89
2019-02-21T11:08:13.837Z,101730.41
2019-02-21T11:10:42.485Z,101734.52
2019-02-21T11:13:11.437Z,101724.47
2019-02-21T11:15:42.016Z,101719.81
2019-02-21T11:18:10.585Z,101719.08
2019-02-21T11:20:40.266Z,101710.26
2019-02-21T11:23:08.894Z,101718.16
2019-02-21T11:25:37.521Z,101696.75
2019-02-21T11:28:06.117Z,101708.92
2019-02-21T11:30:34.834Z,101705.81
2019-02-21T11:33:03.484Z,101705.83
2019-02-21T11:35:32.301Z,101702.67
2019-02-21T11:38:00.862Z,101701.30
2019-02-21T11:40:29.602Z,101700.89
2019-02-21T11:42:59.261Z,101690.00
2019-02-21T11:45:28.059Z,101691.05
2019-02-21T11:47:56.723Z,101687.80
2019-02-21T11:50:25.441Z,101690.81
2019-02-21T11:52:54.127Z,101687.16
2019-02-21T11:55:25.030Z,101690.95
2019-02-21T11:57:53.614Z,101685.02
2019-02-21T12:00:28.233Z,101676.83
2019-02-21T12:02:56.919Z,101670.22
2019-02-21T12:05:31.385Z,101687.87
2019-02-21T12:07:55.819Z,101676.59
2019-02-21T12:10:24.366Z,101680.73
2019-02-21T12:12:53.040Z,101679.53
2019-02-21T12:15:22.730Z,101680.83
2019-02-21T12:17:51.384Z,101685.34
2019-02-21T12:20:20.790Z,101682.55
2019-02-21T12:22:50.514Z,101693.05
2019-02-21T12:25:21.481Z,101679.64
2019-02-21T12:27:50.184Z,101691.30
2019-02-21T12:30:19.797Z,101694.31
2019-02-21T12:32:48.815Z,101695.77
2019-02-21T12:35:28.712Z,101697.98
2019-02-21T12:37:47.859Z,101704.02
2019-02-21T12:40:22.265Z,101695.52
2019-02-21T12:42:51.537Z,101699.38
2019-02-21T12:45:24.661Z,101688.94
2019-02-21T12:47:54.311Z,101696.65
2019-02-21T12:50:23.305Z,101697.75
2019-02-21T12:52:52.294Z,101710.66
2019-02-21T12:55:28.022Z,101704.34
2019-02-21T12:57:51.566Z,101705.69
2019-02-21T13:00:22.216Z,101715.84
2019-02-21T13:02:50.971Z,101704.86
2019-02-21T13:05:20.087Z,101698.54
2019-02-21T13:07:48.841Z,101707.87
2019-02-21T13:10:19.424Z,101705.41
2019-02-21T13:12:47.995Z,101698.55
2019-02-21T13:15:17.847Z,101705.68
2019-02-21T13:17:46.465Z,101701.02
2019-02-21T13:20:15.800Z,101699.38
2019-02-21T13:22:44.508Z,101695.79
2019-02-21T13:25:17.928Z,101699.64
2019-02-21T13:27:46.896Z,101705.94
2019-02-21T13:30:18.852Z,101699.07
2019-02-21T13:32:47.684Z,101692.50
2019-02-21T13:35:16.633Z,101688.69
2019-02-21T13:37:45.662Z,101689.75
2019-02-21T13:40:17.226Z,101679.31
2019-02-21T13:42:46.204Z,101671.09
2019-02-21T13:45:17.982Z,101676.59
2019-02-21T13:47:46.957Z,101680.98
2019-02-21T13:50:20.335Z,101673.02
2019-02-21T13:52:48.927Z,101675.77
2019-02-21T13:55:17.495Z,101673.02
2019-02-21T13:57:46.148Z,101682.91
2019-02-21T14:00:22.033Z,101681.52
2019-02-21T14:02:50.704Z,101682.61
2019-02-21T14:05:19.471Z,101689.20
2019-02-21T14:07:48.119Z,101684.27
2019-02-21T14:10:17.059Z,101687.02
2019-02-21T14:12:45.899Z,101685.08
2019-02-21T14:15:20.474Z,101693.60
2019-02-21T14:17:49.204Z,101687.27
2019-02-21T14:20:17.883Z,101686.16
2019-02-21T14:22:47.499Z,101690.83
2019-02-21T14:25:16.219Z,101696.61
2019-02-21T14:27:44.910Z,101692.20
2019-02-21T14:30:18.461Z,101697.66
2019-02-21T14:32:47.129Z,101708.63
2019-02-21T14:35:16.765Z,101707.82
2019-02-21T14:37:45.476Z,101697.34
2019-02-21T14:40:15.301Z,101700.36
2019-02-21T14:42:43.881Z,101700.34
2019-02-21T14:45:18.271Z,101705.29
2019-02-21T14:47:46.926Z,101696.77
2019-02-21T14:50:15.717Z,101703.56
2019-02-21T14:52:44.363Z,101705.48
2019-02-21T14:55:17.226Z,101707.08
2019-02-21T14:57:45.879Z,101704.60
2019-02-21T15:00:28.769Z,101704.89
2019-02-21T15:02:58.516Z,101700.80
2019-02-21T15:05:27.051Z,101705.48
2019-02-21T15:07:55.601Z,101707.44
2019-02-21T15:10:25.432Z,101712.57
2019-02-21T15:12:54.386Z,101711.52
2019-02-21T15:15:26.944Z,101712.55
2019-02-21T15:18:06.589Z,101713.94
2019-02-21T15:20:36.389Z,101705.47
2019-02-21T15:22:56.222Z,101703.28
2019-02-21T15:25:24.777Z,101696.98
2019-02-21T15:27:53.570Z,101688.50
2019-02-21T15:30:24.021Z,101680.81
2019-02-21T15:32:52.610Z,101677.51
2019-02-21T15:35:21.172Z,101675.88
2019-02-21T15:37:49.786Z,101679.47
2019-02-21T15:40:18.423Z,101679.45
2019-02-21T15:42:47.085Z,101686.52
2019-02-21T15:45:24.425Z,101698.88
2019-02-21T15:47:53.504Z,101698.86
2019-02-21T15:50:22.188Z,101697.83
2019-02-21T15:52:52.667Z,101698.66
2019-02-21T15:55:22.142Z,101697.81
2019-02-21T15:58:03.356Z,101702.71
2019-02-21T16:00:25.163Z,101701.03
2019-02-21T16:02:53.862Z,101696.14
2019-02-21T16:05:22.550Z,101700.02
2019-02-21T16:07:51.526Z,101692.05
2019-02-21T16:10:25.088Z,101699.69
2019-02-21T16:12:54.987Z,101687.86
2019-02-21T16:15:23.775Z,101687.02
2019-02-21T16:17:52.576Z,101686.78
2019-02-21T16:20:21.652Z,101685.39
2019-02-21T16:22:50.292Z,101685.41
2019-02-21T16:25:28.208Z,101681.56
2019-02-21T16:27:56.820Z,101693.33
2019-02-21T16:30:25.384Z,101686.16
2019-02-21T16:32:54.065Z,101690.22
2019-02-21T16:35:22.775Z,101688.66
2019-02-21T16:37:51.503Z,101690.20
2019-02-21T16:40:20.586Z,101692.96
2019-02-21T16:42:49.198Z,101694.13
2019-02-21T16:45:20.023Z,101700.70
2019-02-21T16:47:48.679Z,101695.51
2019-02-21T16:50:28.818Z,101703.78
2019-02-21T16:52:47.755Z,101707.30
2019-02-21T16:55:21.325Z,101708.09
2019-02-21T16:57:50.310Z,101706.47
2019-02-21T17:00:20.618Z,101702.30
2019-02-21T17:02:49.236Z,101698.78
2019-02-21T17:05:17.826Z,101696.85
2019-02-21T17:07:47.522Z,101699.25
2019-02-21T17:10:17.031Z,101705.30
2019-02-21T17:12:45.726Z,101699.51
2019-02-21T17:15:16.110Z,101704.22
2019-02-21T17:17:44.685Z,101709.41
2019-02-21T17:20:19.063Z,101715.52
2019-02-21T17:22:47.692Z,101716.32
2019-02-21T17:25:16.711Z,101707.56
2019-02-21T17:27:45.986Z,101712.98
2019-02-21T17:30:19.092Z,101719.13
2019-02-21T17:32:47.765Z,101719.38
2019-02-21T17:35:16.523Z,101718.80
2019-02-21T17:37:45.229Z,101727.11
2019-02-21T17:40:16.507Z,101722.14
2019-02-21T17:42:45.203Z,101727.34
2019-02-21T17:45:16.810Z,101727.96
2019-02-21T17:47:45.838Z,101727.12
2019-02-21T17:50:16.733Z,101722.97
2019-02-21T17:52:45.487Z,101721.03
2019-02-21T17:55:15.234Z,101725.79
2019-02-21T17:57:44.178Z,101734.30
2019-02-21T18:00:22.330Z,101735.65
2019-02-21T18:02:51.124Z,101737.17
2019-02-21T18:05:19.928Z,101736.03
2019-02-21T18:07:48.654Z,101745.59
2019-02-21T18:10:18.543Z,101744.98
2019-02-21T18:12:47.305Z,101754.80
2019-02-21T18:15:17.242Z,101758.87
2019-02-21T18:17:45.898Z,101764.78
2019-02-21T18:20:15.564Z,101760.09
2019-02-21T18:22:44.791Z,101766.65
2019-02-21T18:25:16.877Z,101764.86
2019-02-21T18:27:45.474Z,101768.14
2019-02-21T18:30:16.681Z,101764.23
2019-02-21T18:32:45.243Z,101762.53
2019-02-21T18:35:13.974Z,101762.19
2019-02-21T18:37:47.436Z,101764.05
2019-02-21T18:40:21.955Z,101764.83
2019-02-21T18:42:50.688Z,101765.41
2019-02-21T18:45:19.400Z,101759.84
2019-02-21T18:47:48.175Z,101755.34
2019-02-21T18:50:17.169Z,101752.80
2019-02-21T18:52:45.835Z,101755.20
2019-02-21T18:55:14.576Z,101758.48
2019-02-21T18:57:44.779Z,101758.57
2019-02-21T19:00:16.939Z,101754.07
2019-02-21T19:02:46.426Z,101759.01
2019-02-21T19:05:15.084Z,101757.10
2019-02-21T19:07:43.818Z,101751.87
2019-02-21T19:10:17.625Z,101754.26
2019-02-21T19:12:46.447Z,101750.98
2019-02-21T19:15:17.073Z,101750.98
2019-02-21T19:17:46.055Z,101753.67
2019-02-21T19:20:16.500Z,101754.69
2019-02-21T19:22:45.289Z,101696.73
2019-02-21T19:25:14.816Z,101755.43
2019-02-21T19:27:43.571Z,101754.16
2019-02-21T19:30:15.560Z,101761.22
2019-02-21T19:32:45.531Z,101757.94
2019-02-21T19:35:14.186Z,101755.25
2019-02-21T19:37:42.942Z,101751.83
2019-02-21T19:40:11.855Z,101754.51
2019-02-21T19:42:40.612Z,101751.58
2019-02-21T19:45:10.085Z,101749.73
2019-02-21T19:47:40.419Z,101750.31
2019-02-21T19:50:10.112Z,101753.66
2019-02-21T19:52:39.034Z,101754.44
2019-02-21T19:55:11.356Z,101752.36
2019-02-21T19:57:40.064Z,101748.06
2019-02-21T20:00:15.596Z,101748.26
2019-02-21T20:02:44.190Z,101748.02
2019-02-21T20:05:12.796Z,101741.95
2019-02-21T20:07:42.548Z,101744.14
2019-02-21T20:10:12.164Z,101746.34
2019-02-21T20:12:40.851Z,101752.55
2019-02-21T20:15:11.649Z,101752.31
2019-02-21T20:17:40.364Z,101750.89
2019-02-21T20:20:23.665Z,101757.44
2019-02-21T20:22:53.008Z,101747.91
2019-02-21T20:25:21.627Z,101759.92
2019-02-21T20:27:50.306Z,101758.80
2019-02-21T20:30:19.736Z,101750.16
2019-02-21T20:32:48.416Z,101761.93
2019-02-21T20:35:16.998Z,101763.00
2019-02-21T20:37:45.627Z,101762.48
2019-02-21T20:40:14.464Z,101773.70
2019-02-21T20:42:43.229Z,101771.51
2019-02-21T20:45:14.136Z,101771.85
2019-02-21T20:47:42.926Z,101771.45
2019-02-21T20:50:12.756Z,101770.15
2019-02-21T20:52:41.791Z,101767.90
2019-02-21T20:55:11.637Z,101773.38
2019-02-21T20:57:40.324Z,101767.59
2019-02-21T21:00:17.215Z,101769.25
2019-02-21T21:02:45.787Z,101766.03
2019-02-21T21:05:14.827Z,101767.55
2019-02-21T21:07:43.583Z,101769.21
2019-02-21T21:10:14.421Z,101775.69
2019-02-21T21:12:43.119Z,101770.67
2019-02-21T21:15:13.519Z,101782.59
2019-02-21T21:17:42.179Z,101778.77
2019-02-21T21:20:17.093Z,101783.19
2019-02-21T21:22:43.357Z,101787.98
2019-02-21T21:25:19.451Z,101790.42
2019-02-21T21:27:48.182Z,101787.34
2019-02-21T21:30:18.015Z,101795.69
2019-02-21T21:32:46.760Z,101801.61
2019-02-21T21:35:15.303Z,101801.61
2019-02-21T21:37:43.964Z,101800.55
2019-02-21T21:40:19.404Z,101801.95
2019-02-21T21:42:48.152Z,101805.59
2019-02-21T21:45:18.941Z,101807.43
2019-02-21T21:47:47.593Z,101809.06
2019-02-21T21:50:19.932Z,101811.26
2019-02-21T21:52:48.583Z,101808.33
2019-02-21T21:55:17.326Z,101810.48
2019-02-21T21:57:45.907Z,101814.94
2019-02-21T22:00:23.236Z,101809.41
2019-02-21T22:02:52.881Z,101814.09
2019-02-21T22:05:21.534Z,101809.98
2019-02-21T22:07:50.230Z,101810.29
2019-02-21T22:10:18.907Z,101817.13
2019-02-21T22:12:47.703Z,101822.06
2019-02-21T22:15:20.725Z,101821.77
2019-02-21T22:17:49.389Z,101825.83
2019-02-21T22:20:18.119Z,101830.52
2019-02-21T22:22:46.678Z,101840.64
2019-02-21T22:25:15.272Z,101839.70
2019-02-21T22:27:47.110Z,101840.83
2019-02-21T22:30:19.798Z,101835.64
2019-02-21T22:32:48.434Z,101838.32
2019-02-21T22:35:16.973Z,101838.33
2019-02-21T22:37:45.672Z,101836.97
2019-02-21T22:40:17.164Z,101844.39
2019-02-21T22:42:45.745Z,101844.45
2019-02-21T22:45:14.361Z,101843.90
2019-02-21T22:47:43.022Z,101846.48
2019-02-21T22:50:16.896Z,101850.05
2019-02-21T22:52:45.535Z,101849.80
2019-02-21T22:55:14.210Z,101843.80
2019-02-21T22:57:42.832Z,101857.24
2019-02-21T23:00:39.927Z,101859.63
2019-02-21T23:03:10.897Z,101860.52
2019-02-21T23:05:59.094Z,101862.72
2019-02-21T23:08:42.902Z,101858.86
2019-02-21T23:11:11.531Z,101863.78
2019-02-21T23:13:40.086Z,101858.86
2019-02-21T23:16:08.741Z,101862.42
2019-02-21T23:18:37.275Z,101855.62
2019-02-21T23:21:05.919Z,101876.41
2019-02-21T23:23:34.457Z,101874.44
2019-02-21T23:26:03.008Z,101872.82
2019-02-21T23:28:31.534Z,101875.85
2019-02-21T23:31:00.173Z,101879.38
2019-02-21T23:33:30.125Z,101879.97
2019-02-21T23:35:58.724Z,101881.03
2019-02-21T23:38:27.242Z,101876.92
2019-02-21T23:40:55.800Z,101892.53
2019-02-21T23:43:24.336Z,101893.88
2019-02-21T23:45:52.937Z,101897.17
2019-02-21T23:48:21.492Z,101892.77
2019-02-21T23:50:50.104Z,101895.48
2019-02-21T23:53:18.638Z,101886.57
2019-02-21T23:55:47.224Z,101885.61
2019-02-21T23:58:15.841Z,101893.88
